Thailine 9 — 9WGP9 — position and weather

sailwx.info

Track history (hours):
 
Tides and Currents Weather Stations Pressure Air Temp Water Temp Dewpoint Dewpoint Depression Visibility Wind Speed Wind Dir Waves Ship Positions

Thailine 9

Last reported at 2016-Jul-25 11:30 UTC. Time now 2016-Jul-31 01:44 UTC.
Position N 34°05' E 134°56'.

Length 113 m; draft 5.6 m.

Type: Ship. MMSI: 533791000.

Date/timePositionNaut miles runAvg speedWind from/ knotsBaromVisibWave heightAir tempDewpointWater temp
2016-Jul-25 11:30N 34°05' E 134°56'1211.9
2016-Jul-25 10:30N 34°16' E 134°59'9 9.3
2016-Jul-25 09:33N 34°24' E 135°04'9 8.5
2016-Jul-25 08:33N 34°28' E 135°13'6 6.0
2016-Jul-25 07:33N 34°31' E 135°19'3 3.1
2016-Jul-25 06:33N 34°31' E 135°23'0 0.0
2016-Jul-25 04:18N 34°31' E 135°23'0 0.0
2016-Jul-25 03:18N 34°31' E 135°23'0 0.0
2016-Jul-25 02:30N 34°31' E 135°23'0 0.0
2016-Jul-25 01:30N 34°31' E 135°23'0 0.0
2016-Jul-25 00:30N 34°31' E 135°23'0 0.0
2016-Jul-24 23:24N 34°31' E 135°23'0 0.0
2016-Jul-24 22:30N 34°31' E 135°23'0 0.0
2016-Jul-24 21:24N 34°31' E 135°23'0 0.0
2016-Jul-24 20:30N 34°31' E 135°23'0 0.0
2016-Jul-24 19:30N 34°31' E 135°23'0 0.0
2016-Jul-24 18:18N 34°31' E 135°23'0 0.1
2016-Jul-24 17:30N 34°31' E 135°23'0 0.0
2016-Jul-24 16:30N 34°31' E 135°23'0 0.0
2016-Jul-24 15:30N 34°31' E 135°23'0 0.0
2016-Jul-24 14:30N 34°31' E 135°23'0 0.0
2016-Jul-24 13:30N 34°31' E 135°23'0 0.0
2016-Jul-24 12:24N 34°31' E 135°23'0 0.0
2016-Jul-24 11:24N 34°31' E 135°23'0 0.0
2016-Jul-24 10:18N 34°31' E 135°23'0 0.0
2016-Jul-24 09:30N 34°31' E 135°23'0 0.0
2016-Jul-24 08:30N 34°31' E 135°23'0 0.0
2016-Jul-24 07:30N 34°31' E 135°23'0 0.0
2016-Jul-24 06:24N 34°31' E 135°23'0 0.0
2016-Jul-24 05:30N 34°31' E 135°23'0 0.0
2016-Jul-24 04:30N 34°31' E 135°23'0 0.0
2016-Jul-24 03:30N 34°31' E 135°23'0 0.0
2016-Jul-24 02:30N 34°31' E 135°23'0 0.0
2016-Jul-24 01:30N 34°31' E 135°23'0 0.0
2016-Jul-24 00:30N 34°31' E 135°23'0 0.0
2016-Jul-23 23:30N 34°31' E 135°23'0 0.0
2016-Jul-23 22:24N 34°31' E 135°23'0 0.0
2016-Jul-23 21:30N 34°31' E 135°23'0 0.0
2016-Jul-23 20:30N 34°31' E 135°23'0 0.0
2016-Jul-23 19:30N 34°31' E 135°23'0 0.0
2016-Jul-23 18:30N 34°31' E 135°23'0 0.0
2016-Jul-23 17:30N 34°31' E 135°23'0 0.0
2016-Jul-23 16:30N 34°31' E 135°23'0 0.0
2016-Jul-23 15:30N 34°31' E 135°23'0 0.0
2016-Jul-23 14:29N 34°31' E 135°23'0 0.0
2016-Jul-23 13:29N 34°31' E 135°23'0 0.0
2016-Jul-23 12:17N 34°31' E 135°23'0 0.0
2016-Jul-23 11:29N 34°31' E 135°23'0 0.0
2016-Jul-23 10:23N 34°31' E 135°23'0 0.0
2016-Jul-23 09:23N 34°31' E 135°23'0 0.0
2016-Jul-23 08:29N 34°31' E 135°23'0 0.0
2016-Jul-23 07:29N 34°31' E 135°23'0 0.0
2016-Jul-23 06:23N 34°31' E 135°23'6 3.0
2016-Jul-23 04:33N 34°33' E 135°17'1111.4
2016-Jul-23 03:33N 34°36' E 135°03'10 9.7
2016-Jul-23 02:32N 34°34' E 134°51'  
Track history (hours):
 
Tides and Currents Weather Stations Pressure Air Temp Water Temp Dewpoint Dewpoint Depression Visibility Wind Speed Wind Dir Waves Ship Positions

Thailine 9

Last reported at 2016-Jul-25 11:30 UTC. Time now 2016-Jul-31 01:44 UTC.
Position N 34°05' E 134°56'.

Length 113 m; draft 5.6 m.

Type: Ship. MMSI: 533791000.

Date/timePositionNaut miles runAvg speedWind from/ knotsBaromVisibWave heightAir tempDewpointWater temp
2016-Jul-25 11:30N 34°05' E 134°56'1211.9
2016-Jul-25 10:30N 34°16' E 134°59'9 9.3
2016-Jul-25 09:33N 34°24' E 135°04'9 8.5
2016-Jul-25 08:33N 34°28' E 135°13'6 6.0
2016-Jul-25 07:33N 34°31' E 135°19'3 3.1
2016-Jul-25 06:33N 34°31' E 135°23'0 0.0
2016-Jul-25 04:18N 34°31' E 135°23'0 0.0
2016-Jul-25 03:18N 34°31' E 135°23'0 0.0
2016-Jul-25 02:30N 34°31' E 135°23'0 0.0
2016-Jul-25 01:30N 34°31' E 135°23'0 0.0
2016-Jul-25 00:30N 34°31' E 135°23'0 0.0
2016-Jul-24 23:24N 34°31' E 135°23'0 0.0
2016-Jul-24 22:30N 34°31' E 135°23'0 0.0
2016-Jul-24 21:24N 34°31' E 135°23'0 0.0
2016-Jul-24 20:30N 34°31' E 135°23'0 0.0
2016-Jul-24 19:30N 34°31' E 135°23'0 0.0
2016-Jul-24 18:18N 34°31' E 135°23'0 0.1
2016-Jul-24 17:30N 34°31' E 135°23'0 0.0
2016-Jul-24 16:30N 34°31' E 135°23'0 0.0
2016-Jul-24 15:30N 34°31' E 135°23'0 0.0
2016-Jul-24 14:30N 34°31' E 135°23'0 0.0
2016-Jul-24 13:30N 34°31' E 135°23'0 0.0
2016-Jul-24 12:24N 34°31' E 135°23'0 0.0
2016-Jul-24 11:24N 34°31' E 135°23'0 0.0
2016-Jul-24 10:18N 34°31' E 135°23'0 0.0
2016-Jul-24 09:30N 34°31' E 135°23'0 0.0
2016-Jul-24 08:30N 34°31' E 135°23'0 0.0
2016-Jul-24 07:30N 34°31' E 135°23'0 0.0
2016-Jul-24 06:24N 34°31' E 135°23'0 0.0
2016-Jul-24 05:30N 34°31' E 135°23'0 0.0
2016-Jul-24 04:30N 34°31' E 135°23'0 0.0
2016-Jul-24 03:30N 34°31' E 135°23'0 0.0
2016-Jul-24 02:30N 34°31' E 135°23'0 0.0
2016-Jul-24 01:30N 34°31' E 135°23'0 0.0
2016-Jul-24 00:30N 34°31' E 135°23'0 0.0
2016-Jul-23 23:30N 34°31' E 135°23'0 0.0
2016-Jul-23 22:24N 34°31' E 135°23'0 0.0
2016-Jul-23 21:30N 34°31' E 135°23'0 0.0
2016-Jul-23 20:30N 34°31' E 135°23'0 0.0
2016-Jul-23 19:30N 34°31' E 135°23'0 0.0
2016-Jul-23 18:30N 34°31' E 135°23'0 0.0
2016-Jul-23 17:30N 34°31' E 135°23'0 0.0
2016-Jul-23 16:30N 34°31' E 135°23'0 0.0
2016-Jul-23 15:30N 34°31' E 135°23'0 0.0
2016-Jul-23 14:29N 34°31' E 135°23'0 0.0
2016-Jul-23 13:29N 34°31' E 135°23'0 0.0
2016-Jul-23 12:17N 34°31' E 135°23'0 0.0
2016-Jul-23 11:29N 34°31' E 135°23'0 0.0
2016-Jul-23 10:23N 34°31' E 135°23'0 0.0
2016-Jul-23 09:23N 34°31' E 135°23'0 0.0
2016-Jul-23 08:29N 34°31' E 135°23'0 0.0
2016-Jul-23 07:29N 34°31' E 135°23'0 0.0
2016-Jul-23 06:23N 34°31' E 135°23'6 3.0
2016-Jul-23 04:33N 34°33' E 135°17'1111.4
2016-Jul-23 03:33N 34°36' E 135°03'10 9.7
2016-Jul-23 02:32N 34°34' E 134°51'  

Dump ship's entire track history